sensor_id;sensor_type;location;lat;lon;timestamp;P1;durP1;ratioP1;P2;durP2;ratioP2
56752;SDS011;42627;42.646;23.642;2023-02-26T00:01:33;6.15;;;3.10;;
56752;SDS011;42627;42.646;23.642;2023-02-26T00:03:36;10.18;;;2.15;;
56752;SDS011;42627;42.646;23.642;2023-02-26T00:05:37;5.65;;;2.42;;
56752;SDS011;42627;42.646;23.642;2023-02-26T00:07:38;5.85;;;1.90;;
56752;SDS011;42627;42.646;23.642;2023-02-26T00:09:39;5.05;;;1.80;;
56752;SDS011;42627;42.646;23.642;2023-02-26T00:11:40;4.40;;;1.45;;
56752;SDS011;42627;42.646;23.642;2023-02-26T00:13:42;4.00;;;2.15;;
56752;SDS011;42627;42.646;23.642;2023-02-26T00:15:47;4.93;;;1.60;;
56752;SDS011;42627;42.646;23.642;2023-02-26T00:19:51;5.72;;;1.48;;
56752;SDS011;42627;42.646;23.642;2023-02-26T00:21:52;4.13;;;1.50;;
56752;SDS011;42627;42.646;23.642;2023-02-26T00:23:53;7.75;;;2.30;;
56752;SDS011;42627;42.646;23.642;2023-02-26T00:25:54;5.63;;;1.98;;
56752;SDS011;42627;42.646;23.642;2023-02-26T00:27:55;9.70;;;2.20;;
56752;SDS011;42627;42.646;23.642;2023-02-26T00:29:56;5.43;;;1.88;;
56752;SDS011;42627;42.646;23.642;2023-02-26T00:31:57;6.18;;;1.95;;
56752;SDS011;42627;42.646;23.642;2023-02-26T00:33:58;5.47;;;1.90;;
56752;SDS011;42627;42.646;23.642;2023-02-26T00:36:18;5.60;;;2.58;;
56752;SDS011;42627;42.646;23.642;2023-02-26T00:38:20;4.93;;;2.30;;
56752;SDS011;42627;42.646;23.642;2023-02-26T00:42:22;8.23;;;1.55;;
56752;SDS011;42627;42.646;23.642;2023-02-26T00:44:24;9.13;;;2.08;;
56752;SDS011;42627;42.646;23.642;2023-02-26T00:46:27;6.85;;;1.63;;
56752;SDS011;42627;42.646;23.642;2023-02-26T00:48:35;6.47;;;1.65;;
56752;SDS011;42627;42.646;23.642;2023-02-26T00:50:37;4.03;;;1.27;;
56752;SDS011;42627;42.646;23.642;2023-02-26T00:54:50;5.53;;;2.05;;
56752;SDS011;42627;42.646;23.642;2023-02-26T00:56:52;6.22;;;1.92;;
56752;SDS011;42627;42.646;23.642;2023-02-26T00:58:53;7.43;;;1.48;;
56752;SDS011;42627;42.646;23.642;2023-02-26T01:00:54;4.32;;;1.67;;
56752;SDS011;42627;42.646;23.642;2023-02-26T01:02:55;8.00;;;2.00;;
56752;SDS011;42627;42.646;23.642;2023-02-26T01:04:57;6.03;;;1.92;;
56752;SDS011;42627;42.646;23.642;2023-02-26T01:06:58;6.28;;;2.10;;
56752;SDS011;42627;42.646;23.642;2023-02-26T01:11:00;6.60;;;2.10;;
56752;SDS011;42627;42.646;23.642;2023-02-26T01:13:01;5.43;;;1.63;;
56752;SDS011;42627;42.646;23.642;2023-02-26T01:15:03;7.38;;;1.98;;
56752;SDS011;42627;42.646;23.642;2023-02-26T01:17:07;5.03;;;1.42;;
56752;SDS011;42627;42.646;23.642;2023-02-26T01:19:19;8.93;;;1.77;;
56752;SDS011;42627;42.646;23.642;2023-02-26T01:21:26;5.10;;;1.90;;
56752;SDS011;42627;42.646;23.642;2023-02-26T01:23:29;7.43;;;3.67;;
56752;SDS011;42627;42.646;23.642;2023-02-26T01:25:42;9.15;;;2.08;;
56752;SDS011;42627;42.646;23.642;2023-02-26T01:27:44;7.47;;;1.67;;
56752;SDS011;42627;42.646;23.642;2023-02-26T01:29:45;6.88;;;1.92;;
56752;SDS011;42627;42.646;23.642;2023-02-26T01:31:53;7.00;;;1.85;;
56752;SDS011;42627;42.646;23.642;2023-02-26T01:33:58;11.45;;;2.08;;
56752;SDS011;42627;42.646;23.642;2023-02-26T01:36:09;3.97;;;1.55;;
56752;SDS011;42627;42.646;23.642;2023-02-26T01:38:35;4.97;;;1.42;;
56752;SDS011;42627;42.646;23.642;2023-02-26T01:43:02;10.65;;;3.08;;
56752;SDS011;42627;42.646;23.642;2023-02-26T01:45:13;9.35;;;2.75;;
56752;SDS011;42627;42.646;23.642;2023-02-26T01:49:20;9.35;;;2.90;;
56752;SDS011;42627;42.646;23.642;2023-02-26T01:54:04;12.15;;;3.42;;
56752;SDS011;42627;42.646;23.642;2023-02-26T01:56:09;9.07;;;3.42;;
56752;SDS011;42627;42.646;23.642;2023-02-26T01:58:11;9.70;;;3.38;;
56752;SDS011;42627;42.646;23.642;2023-02-26T02:00:13;8.15;;;2.90;;
56752;SDS011;42627;42.646;23.642;2023-02-26T02:02:17;10.77;;;3.45;;
56752;SDS011;42627;42.646;23.642;2023-02-26T02:04:19;6.30;;;3.30;;
56752;SDS011;42627;42.646;23.642;2023-02-26T02:06:21;12.52;;;4.10;;
56752;SDS011;42627;42.646;23.642;2023-02-26T02:08:22;8.63;;;2.95;;
56752;SDS011;42627;42.646;23.642;2023-02-26T02:10:24;13.00;;;3.75;;
56752;SDS011;42627;42.646;23.642;2023-02-26T02:12:31;6.95;;;3.17;;
56752;SDS011;42627;42.646;23.642;2023-02-26T02:26:21;10.90;;;3.00;;
56752;SDS011;42627;42.646;23.642;2023-02-26T02:28:33;7.85;;;3.05;;
56752;SDS011;42627;42.646;23.642;2023-02-26T02:32:58;13.23;;;2.90;;
56752;SDS011;42627;42.646;23.642;2023-02-26T02:35:08;5.97;;;2.35;;
56752;SDS011;42627;42.646;23.642;2023-02-26T02:37:20;7.75;;;3.03;;
56752;SDS011;42627;42.646;23.642;2023-02-26T02:39:31;7.82;;;2.83;;
56752;SDS011;42627;42.646;23.642;2023-02-26T02:41:35;11.88;;;2.30;;
56752;SDS011;42627;42.646;23.642;2023-02-26T02:43:38;4.80;;;1.67;;
56752;SDS011;42627;42.646;23.642;2023-02-26T02:45:44;5.68;;;1.30;;
56752;SDS011;42627;42.646;23.642;2023-02-26T02:47:47;7.10;;;2.05;;
56752;SDS011;42627;42.646;23.642;2023-02-26T02:49:56;3.92;;;1.52;;
56752;SDS011;42627;42.646;23.642;2023-02-26T02:57:07;4.55;;;1.33;;
56752;SDS011;42627;42.646;23.642;2023-02-26T02:59:15;3.88;;;1.05;;
56752;SDS011;42627;42.646;23.642;2023-02-26T03:01:18;2.08;;;0.90;;
56752;SDS011;42627;42.646;23.642;2023-02-26T03:05:22;7.50;;;1.60;;
56752;SDS011;42627;42.646;23.642;2023-02-26T03:07:23;3.80;;;0.80;;
56752;SDS011;42627;42.646;23.642;2023-02-26T03:09:24;4.07;;;1.10;;
56752;SDS011;42627;42.646;23.642;2023-02-26T03:11:25;8.00;;;1.67;;
56752;SDS011;42627;42.646;23.642;2023-02-26T03:13:26;3.63;;;1.50;;
56752;SDS011;42627;42.646;23.642;2023-02-26T03:15:35;9.18;;;1.95;;
56752;SDS011;42627;42.646;23.642;2023-02-26T03:20:02;9.48;;;1.40;;
56752;SDS011;42627;42.646;23.642;2023-02-26T03:24:55;3.53;;;1.30;;
56752;SDS011;42627;42.646;23.642;2023-02-26T03:29:03;7.07;;;1.75;;
56752;SDS011;42627;42.646;23.642;2023-02-26T03:31:13;4.18;;;1.30;;
56752;SDS011;42627;42.646;23.642;2023-02-26T03:33:23;5.60;;;1.52;;
56752;SDS011;42627;42.646;23.642;2023-02-26T03:35:27;4.10;;;1.10;;
56752;SDS011;42627;42.646;23.642;2023-02-26T03:37:34;8.90;;;1.40;;
56752;SDS011;42627;42.646;23.642;2023-02-26T03:39:38;4.18;;;1.30;;
56752;SDS011;42627;42.646;23.642;2023-02-26T03:43:49;7.88;;;1.38;;
56752;SDS011;42627;42.646;23.642;2023-02-26T03:45:51;3.58;;;1.15;;
56752;SDS011;42627;42.646;23.642;2023-02-26T03:47:53;5.10;;;1.38;;
56752;SDS011;42627;42.646;23.642;2023-02-26T03:51:56;7.00;;;1.67;;
56752;SDS011;42627;42.646;23.642;2023-02-26T03:54:00;6.93;;;1.83;;
56752;SDS011;42627;42.646;23.642;2023-02-26T03:56:10;9.45;;;2.80;;
56752;SDS011;42627;42.646;23.642;2023-02-26T03:58:14;13.70;;;4.05;;
56752;SDS011;42627;42.646;23.642;2023-02-26T04:00:15;12.80;;;2.70;;
56752;SDS011;42627;42.646;23.642;2023-02-26T04:04:25;11.57;;;2.58;;
56752;SDS011;42627;42.646;23.642;2023-02-26T04:06:27;10.02;;;3.65;;
56752;SDS011;42627;42.646;23.642;2023-02-26T04:08:29;11.30;;;3.08;;
56752;SDS011;42627;42.646;23.642;2023-02-26T04:10:35;5.68;;;2.33;;
56752;SDS011;42627;42.646;23.642;2023-02-26T04:12:37;13.88;;;3.22;;
56752;SDS011;42627;42.646;23.642;2023-02-26T04:14:38;13.00;;;2.78;;
56752;SDS011;42627;42.646;23.642;2023-02-26T04:16:40;10.32;;;3.58;;
56752;SDS011;42627;42.646;23.642;2023-02-26T04:18:41;11.45;;;3.70;;
56752;SDS011;42627;42.646;23.642;2023-02-26T04:20:42;14.88;;;4.65;;
56752;SDS011;42627;42.646;23.642;2023-02-26T04:22:43;16.60;;;5.55;;
56752;SDS011;42627;42.646;23.642;2023-02-26T04:24:44;22.15;;;5.30;;
56752;SDS011;42627;42.646;23.642;2023-02-26T04:26:51;8.68;;;3.45;;
56752;SDS011;42627;42.646;23.642;2023-02-26T04:29:07;8.65;;;3.45;;
56752;SDS011;42627;42.646;23.642;2023-02-26T04:31:08;9.70;;;3.60;;
56752;SDS011;42627;42.646;23.642;2023-02-26T04:33:09;5.35;;;2.70;;
56752;SDS011;42627;42.646;23.642;2023-02-26T04:35:10;7.43;;;3.03;;
56752;SDS011;42627;42.646;23.642;2023-02-26T04:37:11;16.48;;;4.15;;
56752;SDS011;42627;42.646;23.642;2023-02-26T04:39:12;9.75;;;4.05;;
56752;SDS011;42627;42.646;23.642;2023-02-26T04:41:13;14.57;;;4.20;;
56752;SDS011;42627;42.646;23.642;2023-02-26T04:43:14;8.00;;;3.63;;
56752;SDS011;42627;42.646;23.642;2023-02-26T04:45:15;6.68;;;3.95;;
56752;SDS011;42627;42.646;23.642;2023-02-26T04:47:17;13.35;;;4.32;;
56752;SDS011;42627;42.646;23.642;2023-02-26T04:49:17;61.28;;;19.45;;
56752;SDS011;42627;42.646;23.642;2023-02-26T04:51:18;19.45;;;5.68;;
56752;SDS011;42627;42.646;23.642;2023-02-26T04:53:21;12.82;;;4.20;;
56752;SDS011;42627;42.646;23.642;2023-02-26T04:55:22;6.78;;;2.97;;
56752;SDS011;42627;42.646;23.642;2023-02-26T04:57:23;8.75;;;3.15;;
56752;SDS011;42627;42.646;23.642;2023-02-26T04:59:24;8.07;;;2.53;;
56752;SDS011;42627;42.646;23.642;2023-02-26T05:01:25;13.50;;;3.33;;
56752;SDS011;42627;42.646;23.642;2023-02-26T05:03:26;10.52;;;2.90;;
56752;SDS011;42627;42.646;23.642;2023-02-26T05:05:27;13.52;;;4.53;;
56752;SDS011;42627;42.646;23.642;2023-02-26T05:07:28;11.45;;;3.80;;
56752;SDS011;42627;42.646;23.642;2023-02-26T05:09:29;6.28;;;2.97;;
56752;SDS011;42627;42.646;23.642;2023-02-26T05:11:30;10.90;;;3.38;;
56752;SDS011;42627;42.646;23.642;2023-02-26T05:13:31;11.73;;;4.60;;
56752;SDS011;42627;42.646;23.642;2023-02-26T05:15:32;10.90;;;4.55;;
56752;SDS011;42627;42.646;23.642;2023-02-26T05:17:34;13.18;;;4.57;;
56752;SDS011;42627;42.646;23.642;2023-02-26T05:19:35;30.75;;;6.18;;
56752;SDS011;42627;42.646;23.642;2023-02-26T05:21:36;6.72;;;3.00;;
56752;SDS011;42627;42.646;23.642;2023-02-26T05:23:43;11.43;;;3.20;;
56752;SDS011;42627;42.646;23.642;2023-02-26T05:25:49;12.98;;;3.05;;
56752;SDS011;42627;42.646;23.642;2023-02-26T05:27:51;9.88;;;4.45;;
56752;SDS011;42627;42.646;23.642;2023-02-26T05:29:52;7.28;;;2.80;;
56752;SDS011;42627;42.646;23.642;2023-02-26T05:31:53;11.27;;;2.80;;
56752;SDS011;42627;42.646;23.642;2023-02-26T05:33:54;8.43;;;2.70;;
56752;SDS011;42627;42.646;23.642;2023-02-26T05:35:55;6.15;;;2.22;;
56752;SDS011;42627;42.646;23.642;2023-02-26T05:37:56;9.95;;;2.60;;
56752;SDS011;42627;42.646;23.642;2023-02-26T05:39:58;8.07;;;2.55;;
56752;SDS011;42627;42.646;23.642;2023-02-26T05:42:08;7.35;;;2.60;;
56752;SDS011;42627;42.646;23.642;2023-02-26T05:44:09;8.10;;;2.60;;
56752;SDS011;42627;42.646;23.642;2023-02-26T05:46:10;6.25;;;2.75;;
56752;SDS011;42627;42.646;23.642;2023-02-26T05:48:12;18.55;;;5.63;;
56752;SDS011;42627;42.646;23.642;2023-02-26T05:50:13;10.82;;;3.63;;
56752;SDS011;42627;42.646;23.642;2023-02-26T05:52:16;9.45;;;3.92;;
56752;SDS011;42627;42.646;23.642;2023-02-26T05:54:18;7.85;;;3.30;;
56752;SDS011;42627;42.646;23.642;2023-02-26T05:56:22;11.18;;;3.30;;
56752;SDS011;42627;42.646;23.642;2023-02-26T05:58:23;8.45;;;3.65;;
56752;SDS011;42627;42.646;23.642;2023-02-26T06:00:25;14.38;;;3.72;;
56752;SDS011;42627;42.646;23.642;2023-02-26T06:02:26;4.57;;;2.50;;
56752;SDS011;42627;42.646;23.642;2023-02-26T06:04:27;12.50;;;3.17;;
56752;SDS011;42627;42.646;23.642;2023-02-26T06:06:28;7.95;;;3.45;;
56752;SDS011;42627;42.646;23.642;2023-02-26T06:08:29;14.18;;;6.90;;
56752;SDS011;42627;42.646;23.642;2023-02-26T06:10:30;8.77;;;5.07;;
56752;SDS011;42627;42.646;23.642;2023-02-26T06:12:31;14.02;;;7.28;;
56752;SDS011;42627;42.646;23.642;2023-02-26T06:14:32;10.90;;;4.55;;
56752;SDS011;42627;42.646;23.642;2023-02-26T06:16:33;11.45;;;3.97;;
56752;SDS011;42627;42.646;23.642;2023-02-26T06:18:34;8.77;;;3.65;;
56752;SDS011;42627;42.646;23.642;2023-02-26T06:20:35;13.85;;;3.95;;
56752;SDS011;42627;42.646;23.642;2023-02-26T06:22:38;13.27;;;3.60;;
56752;SDS011;42627;42.646;23.642;2023-02-26T06:24:39;14.18;;;5.85;;
56752;SDS011;42627;42.646;23.642;2023-02-26T06:26:40;18.52;;;8.82;;
56752;SDS011;42627;42.646;23.642;2023-02-26T06:28:41;31.73;;;10.40;;
56752;SDS011;42627;42.646;23.642;2023-02-26T06:30:42;12.00;;;6.10;;
56752;SDS011;42627;42.646;23.642;2023-02-26T06:32:43;12.68;;;5.10;;
56752;SDS011;42627;42.646;23.642;2023-02-26T06:34:44;15.32;;;5.20;;
56752;SDS011;42627;42.646;23.642;2023-02-26T06:36:45;18.55;;;6.93;;
56752;SDS011;42627;42.646;23.642;2023-02-26T06:38:46;16.02;;;8.13;;
56752;SDS011;42627;42.646;23.642;2023-02-26T06:40:52;17.77;;;8.63;;
56752;SDS011;42627;42.646;23.642;2023-02-26T06:42:53;17.77;;;7.65;;
56752;SDS011;42627;42.646;23.642;2023-02-26T06:44:54;24.08;;;8.52;;
56752;SDS011;42627;42.646;23.642;2023-02-26T06:46:56;23.48;;;9.63;;
56752;SDS011;42627;42.646;23.642;2023-02-26T06:48:57;34.95;;;13.95;;
56752;SDS011;42627;42.646;23.642;2023-02-26T06:50:58;24.42;;;9.88;;
56752;SDS011;42627;42.646;23.642;2023-02-26T06:55:19;25.08;;;9.82;;
56752;SDS011;42627;42.646;23.642;2023-02-26T06:57:20;29.20;;;10.15;;
56752;SDS011;42627;42.646;23.642;2023-02-26T06:59:22;23.58;;;8.52;;
56752;SDS011;42627;42.646;23.642;2023-02-26T07:01:23;61.95;;;19.63;;
56752;SDS011;42627;42.646;23.642;2023-02-26T07:03:24;58.20;;;19.83;;
56752;SDS011;42627;42.646;23.642;2023-02-26T07:05:25;47.60;;;15.05;;
56752;SDS011;42627;42.646;23.642;2023-02-26T07:07:26;21.33;;;8.13;;
56752;SDS011;42627;42.646;23.642;2023-02-26T07:09:27;18.75;;;5.10;;
56752;SDS011;42627;42.646;23.642;2023-02-26T07:11:30;14.93;;;5.13;;
56752;SDS011;42627;42.646;23.642;2023-02-26T07:13:31;8.57;;;3.70;;
56752;SDS011;42627;42.646;23.642;2023-02-26T07:15:32;17.40;;;3.67;;
56752;SDS011;42627;42.646;23.642;2023-02-26T07:17:33;6.25;;;2.30;;
56752;SDS011;42627;42.646;23.642;2023-02-26T07:19:34;7.30;;;2.10;;
56752;SDS011;42627;42.646;23.642;2023-02-26T07:21:36;7.15;;;2.45;;
56752;SDS011;42627;42.646;23.642;2023-02-26T07:23:38;8.32;;;2.45;;
56752;SDS011;42627;42.646;23.642;2023-02-26T07:25:39;5.57;;;1.90;;
56752;SDS011;42627;42.646;23.642;2023-02-26T07:27:40;7.78;;;2.00;;
56752;SDS011;42627;42.646;23.642;2023-02-26T07:29:41;7.30;;;2.28;;
56752;SDS011;42627;42.646;23.642;2023-02-26T07:31:42;9.50;;;2.83;;
56752;SDS011;42627;42.646;23.642;2023-02-26T07:33:43;6.28;;;2.55;;
56752;SDS011;42627;42.646;23.642;2023-02-26T07:35:44;6.75;;;1.90;;
56752;SDS011;42627;42.646;23.642;2023-02-26T07:37:45;12.55;;;1.80;;
56752;SDS011;42627;42.646;23.642;2023-02-26T07:39:46;14.20;;;2.15;;
56752;SDS011;42627;42.646;23.642;2023-02-26T07:41:47;9.93;;;2.47;;
56752;SDS011;42627;42.646;23.642;2023-02-26T07:43:48;8.82;;;2.63;;
56752;SDS011;42627;42.646;23.642;2023-02-26T07:45:50;8.70;;;2.75;;
56752;SDS011;42627;42.646;23.642;2023-02-26T07:47:51;5.90;;;1.85;;
56752;SDS011;42627;42.646;23.642;2023-02-26T07:49:52;6.63;;;1.75;;
56752;SDS011;42627;42.646;23.642;2023-02-26T07:51:53;3.90;;;1.40;;
56752;SDS011;42627;42.646;23.642;2023-02-26T07:53:54;8.90;;;2.67;;
56752;SDS011;42627;42.646;23.642;2023-02-26T07:56:03;7.18;;;2.50;;
56752;SDS011;42627;42.646;23.642;2023-02-26T07:58:14;7.40;;;1.40;;
56752;SDS011;42627;42.646;23.642;2023-02-26T08:00:16;11.25;;;2.53;;
56752;SDS011;42627;42.646;23.642;2023-02-26T08:02:17;20.48;;;7.93;;
56752;SDS011;42627;42.646;23.642;2023-02-26T08:04:18;16.77;;;7.38;;
56752;SDS011;42627;42.646;23.642;2023-02-26T08:06:19;10.15;;;3.70;;
56752;SDS011;42627;42.646;23.642;2023-02-26T08:08:20;11.60;;;1.60;;
56752;SDS011;42627;42.646;23.642;2023-02-26T08:10:24;12.35;;;1.85;;
56752;SDS011;42627;42.646;23.642;2023-02-26T08:12:25;11.38;;;2.03;;
56752;SDS011;42627;42.646;23.642;2023-02-26T08:14:26;9.75;;;2.22;;
56752;SDS011;42627;42.646;23.642;2023-02-26T08:16:27;6.78;;;1.70;;
56752;SDS011;42627;42.646;23.642;2023-02-26T08:18:28;12.30;;;1.77;;
56752;SDS011;42627;42.646;23.642;2023-02-26T08:20:29;6.72;;;1.33;;
56752;SDS011;42627;42.646;23.642;2023-02-26T08:22:30;4.63;;;1.25;;
56752;SDS011;42627;42.646;23.642;2023-02-26T08:24:31;10.02;;;1.70;;
56752;SDS011;42627;42.646;23.642;2023-02-26T08:26:35;7.97;;;1.20;;
56752;SDS011;42627;42.646;23.642;2023-02-26T08:28:36;8.02;;;1.95;;
56752;SDS011;42627;42.646;23.642;2023-02-26T08:30:37;5.65;;;1.58;;
56752;SDS011;42627;42.646;23.642;2023-02-26T08:32:39;8.50;;;1.60;;
56752;SDS011;42627;42.646;23.642;2023-02-26T08:34:46;6.55;;;2.42;;
56752;SDS011;42627;42.646;23.642;2023-02-26T08:36:48;10.52;;;1.92;;
56752;SDS011;42627;42.646;23.642;2023-02-26T08:38:51;5.85;;;1.85;;
56752;SDS011;42627;42.646;23.642;2023-02-26T08:40:53;15.52;;;3.10;;
56752;SDS011;42627;42.646;23.642;2023-02-26T08:42:55;12.82;;;3.30;;
56752;SDS011;42627;42.646;23.642;2023-02-26T08:44:56;11.45;;;3.13;;
56752;SDS011;42627;42.646;23.642;2023-02-26T08:46:57;6.47;;;2.15;;
56752;SDS011;42627;42.646;23.642;2023-02-26T08:48:58;20.70;;;5.80;;
56752;SDS011;42627;42.646;23.642;2023-02-26T08:50:59;10.52;;;2.95;;
56752;SDS011;42627;42.646;23.642;2023-02-26T08:53:00;7.55;;;2.65;;
56752;SDS011;42627;42.646;23.642;2023-02-26T08:59:16;6.90;;;3.70;;
56752;SDS011;42627;42.646;23.642;2023-02-26T09:01:17;4.65;;;1.77;;
56752;SDS011;42627;42.646;23.642;2023-02-26T09:03:18;10.25;;;1.77;;
56752;SDS011;42627;42.646;23.642;2023-02-26T09:05:23;11.52;;;2.00;;
56752;SDS011;42627;42.646;23.642;2023-02-26T09:07:25;4.68;;;1.85;;
56752;SDS011;42627;42.646;23.642;2023-02-26T09:09:39;6.57;;;2.38;;
56752;SDS011;42627;42.646;23.642;2023-02-26T09:11:40;8.23;;;2.00;;
56752;SDS011;42627;42.646;23.642;2023-02-26T09:13:41;7.75;;;1.80;;
56752;SDS011;42627;42.646;23.642;2023-02-26T09:15:42;17.25;;;1.77;;
56752;SDS011;42627;42.646;23.642;2023-02-26T09:17:43;19.17;;;1.90;;
56752;SDS011;42627;42.646;23.642;2023-02-26T09:19:44;7.43;;;2.53;;
56752;SDS011;42627;42.646;23.642;2023-02-26T09:21:45;11.07;;;3.33;;
56752;SDS011;42627;42.646;23.642;2023-02-26T09:23:46;6.60;;;2.45;;
56752;SDS011;42627;42.646;23.642;2023-02-26T09:25:54;5.90;;;1.77;;
56752;SDS011;42627;42.646;23.642;2023-02-26T09:27:55;8.82;;;2.08;;
56752;SDS011;42627;42.646;23.642;2023-02-26T09:29:56;6.63;;;1.63;;
56752;SDS011;42627;42.646;23.642;2023-02-26T09:31:57;7.90;;;2.95;;
56752;SDS011;42627;42.646;23.642;2023-02-26T09:33:58;5.88;;;3.00;;
56752;SDS011;42627;42.646;23.642;2023-02-26T09:35:59;16.08;;;5.10;;
56752;SDS011;42627;42.646;23.642;2023-02-26T09:38:00;5.80;;;1.73;;
56752;SDS011;42627;42.646;23.642;2023-02-26T09:40:06;5.03;;;1.83;;
56752;SDS011;42627;42.646;23.642;2023-02-26T09:44:39;18.40;;;5.82;;
56752;SDS011;42627;42.646;23.642;2023-02-26T09:48:49;16.20;;;7.25;;
56752;SDS011;42627;42.646;23.642;2023-02-26T09:50:51;17.58;;;6.20;;
56752;SDS011;42627;42.646;23.642;2023-02-26T09:55:23;8.13;;;1.50;;
56752;SDS011;42627;42.646;23.642;2023-02-26T10:21:19;6.05;;;1.42;;
56752;SDS011;42627;42.646;23.642;2023-02-26T10:23:31;5.78;;;1.73;;
56752;SDS011;42627;42.646;23.642;2023-02-26T10:25:36;10.55;;;2.28;;
56752;SDS011;42627;42.646;23.642;2023-02-26T10:27:41;7.10;;;2.17;;
56752;SDS011;42627;42.646;23.642;2023-02-26T10:29:56;15.43;;;5.72;;
56752;SDS011;42627;42.646;23.642;2023-02-26T10:32:20;18.50;;;6.47;;
56752;SDS011;42627;42.646;23.642;2023-02-26T10:58:24;6.35;;;1.30;;
56752;SDS011;42627;42.646;23.642;2023-02-26T11:00:25;7.63;;;1.65;;
56752;SDS011;42627;42.646;23.642;2023-02-26T11:02:34;6.72;;;1.38;;
56752;SDS011;42627;42.646;23.642;2023-02-26T11:04:36;16.27;;;1.90;;
56752;SDS011;42627;42.646;23.642;2023-02-26T11:06:40;11.85;;;2.80;;
56752;SDS011;42627;42.646;23.642;2023-02-26T11:41:24;9.40;;;2.63;;
56752;SDS011;42627;42.646;23.642;2023-02-26T11:43:26;6.55;;;2.00;;
56752;SDS011;42627;42.646;23.642;2023-02-26T11:45:38;16.73;;;3.63;;
56752;SDS011;42627;42.646;23.642;2023-02-26T11:47:41;16.15;;;2.88;;
56752;SDS011;42627;42.646;23.642;2023-02-26T11:49:44;13.48;;;2.83;;
56752;SDS011;42627;42.646;23.642;2023-02-26T11:51:45;11.27;;;2.00;;
56752;SDS011;42627;42.646;23.642;2023-02-26T12:26:21;8.13;;;2.10;;
56752;SDS011;42627;42.646;23.642;2023-02-26T12:32:47;9.00;;;1.95;;
56752;SDS011;42627;42.646;23.642;2023-02-26T12:34:59;6.63;;;2.33;;
56752;SDS011;42627;42.646;23.642;2023-02-26T12:43:58;11.05;;;2.42;;
56752;SDS011;42627;42.646;23.642;2023-02-26T13:01:22;9.00;;;2.55;;
56752;SDS011;42627;42.646;23.642;2023-02-26T13:03:32;5.70;;;1.98;;
56752;SDS011;42627;42.646;23.642;2023-02-26T13:09:54;9.90;;;1.88;;
56752;SDS011;42627;42.646;23.642;2023-02-26T13:12:22;6.47;;;1.55;;
56752;SDS011;42627;42.646;23.642;2023-02-26T13:14:32;9.77;;;1.70;;
56752;SDS011;42627;42.646;23.642;2023-02-26T13:20:59;3.72;;;1.90;;
56752;SDS011;42627;42.646;23.642;2023-02-26T13:23:03;7.20;;;2.00;;
56752;SDS011;42627;42.646;23.642;2023-02-26T13:25:08;10.45;;;2.30;;
56752;SDS011;42627;42.646;23.642;2023-02-26T13:27:16;4.85;;;1.20;;
56752;SDS011;42627;42.646;23.642;2023-02-26T13:29:23;6.50;;;2.10;;
56752;SDS011;42627;42.646;23.642;2023-02-26T13:33:32;9.43;;;3.28;;
56752;SDS011;42627;42.646;23.642;2023-02-26T13:35:37;17.95;;;2.58;;
56752;SDS011;42627;42.646;23.642;2023-02-26T13:37:41;7.47;;;2.00;;
56752;SDS011;42627;42.646;23.642;2023-02-26T13:40:10;8.48;;;2.38;;
56752;SDS011;42627;42.646;23.642;2023-02-26T13:55:36;11.07;;;1.90;;
56752;SDS011;42627;42.646;23.642;2023-02-26T13:57:42;24.08;;;6.18;;
56752;SDS011;42627;42.646;23.642;2023-02-26T13:59:51;17.17;;;4.82;;
56752;SDS011;42627;42.646;23.642;2023-02-26T14:01:54;16.35;;;4.53;;
56752;SDS011;42627;42.646;23.642;2023-02-26T14:06:21;11.75;;;2.70;;
56752;SDS011;42627;42.646;23.642;2023-02-26T14:08:38;8.80;;;2.78;;
56752;SDS011;42627;42.646;23.642;2023-02-26T14:11:24;14.63;;;5.63;;
56752;SDS011;42627;42.646;23.642;2023-02-26T14:15:25;12.35;;;3.55;;
56752;SDS011;42627;42.646;23.642;2023-02-26T14:17:28;13.60;;;4.07;;
56752;SDS011;42627;42.646;23.642;2023-02-26T14:19:32;8.70;;;2.92;;
56752;SDS011;42627;42.646;23.642;2023-02-26T14:21:34;9.38;;;3.13;;
56752;SDS011;42627;42.646;23.642;2023-02-26T14:23:36;10.82;;;3.28;;
56752;SDS011;42627;42.646;23.642;2023-02-26T14:25:41;10.88;;;2.83;;
56752;SDS011;42627;42.646;23.642;2023-02-26T14:28:16;11.30;;;3.72;;
56752;SDS011;42627;42.646;23.642;2023-02-26T14:30:18;13.43;;;4.10;;
56752;SDS011;42627;42.646;23.642;2023-02-26T14:32:32;9.95;;;2.38;;
56752;SDS011;42627;42.646;23.642;2023-02-26T14:34:34;17.10;;;3.63;;
56752;SDS011;42627;42.646;23.642;2023-02-26T14:43:36;13.13;;;2.50;;
56752;SDS011;42627;42.646;23.642;2023-02-26T14:45:38;14.00;;;2.63;;
56752;SDS011;42627;42.646;23.642;2023-02-26T14:47:42;12.98;;;2.25;;
56752;SDS011;42627;42.646;23.642;2023-02-26T14:49:44;12.60;;;2.85;;
56752;SDS011;42627;42.646;23.642;2023-02-26T15:03:34;11.38;;;2.28;;
56752;SDS011;42627;42.646;23.642;2023-02-26T15:05:52;11.70;;;3.33;;
56752;SDS011;42627;42.646;23.642;2023-02-26T15:17:39;14.18;;;3.80;;
56752;SDS011;42627;42.646;23.642;2023-02-26T15:22:08;14.35;;;2.78;;
56752;SDS011;42627;42.646;23.642;2023-02-26T15:24:13;9.30;;;3.53;;
56752;SDS011;42627;42.646;23.642;2023-02-26T15:26:17;10.75;;;2.70;;
56752;SDS011;42627;42.646;23.642;2023-02-26T15:28:26;14.63;;;2.45;;
56752;SDS011;42627;42.646;23.642;2023-02-26T15:30:29;10.90;;;2.35;;
56752;SDS011;42627;42.646;23.642;2023-02-26T15:32:35;11.60;;;2.70;;
56752;SDS011;42627;42.646;23.642;2023-02-26T15:34:37;9.48;;;3.42;;
56752;SDS011;42627;42.646;23.642;2023-02-26T15:36:50;10.55;;;3.05;;
56752;SDS011;42627;42.646;23.642;2023-02-26T15:39:07;12.15;;;4.07;;
56752;SDS011;42627;42.646;23.642;2023-02-26T15:41:45;10.82;;;3.95;;
56752;SDS011;42627;42.646;23.642;2023-02-26T15:43:48;13.10;;;4.00;;
56752;SDS011;42627;42.646;23.642;2023-02-26T15:45:51;15.00;;;6.15;;
56752;SDS011;42627;42.646;23.642;2023-02-26T15:47:54;9.25;;;4.45;;
56752;SDS011;42627;42.646;23.642;2023-02-26T15:49:56;18.70;;;2.58;;
56752;SDS011;42627;42.646;23.642;2023-02-26T15:51:58;10.05;;;4.55;;
56752;SDS011;42627;42.646;23.642;2023-02-26T15:54:03;7.63;;;2.00;;
56752;SDS011;42627;42.646;23.642;2023-02-26T15:56:27;18.63;;;3.15;;
56752;SDS011;42627;42.646;23.642;2023-02-26T15:58:32;6.20;;;2.08;;
56752;SDS011;42627;42.646;23.642;2023-02-26T16:00:34;6.28;;;1.95;;
56752;SDS011;42627;42.646;23.642;2023-02-26T16:02:35;11.57;;;3.15;;
56752;SDS011;42627;42.646;23.642;2023-02-26T16:04:36;24.50;;;6.70;;
56752;SDS011;42627;42.646;23.642;2023-02-26T16:06:47;16.35;;;5.65;;
56752;SDS011;42627;42.646;23.642;2023-02-26T16:11:36;6.43;;;2.92;;
56752;SDS011;42627;42.646;23.642;2023-02-26T16:13:38;8.40;;;2.70;;
56752;SDS011;42627;42.646;23.642;2023-02-26T16:15:41;8.73;;;2.70;;
56752;SDS011;42627;42.646;23.642;2023-02-26T16:17:46;9.18;;;2.55;;
56752;SDS011;42627;42.646;23.642;2023-02-26T16:19:52;8.38;;;2.50;;
56752;SDS011;42627;42.646;23.642;2023-02-26T16:21:55;4.63;;;2.10;;
56752;SDS011;42627;42.646;23.642;2023-02-26T16:23:58;4.78;;;2.17;;
56752;SDS011;42627;42.646;23.642;2023-02-26T16:26:19;9.70;;;3.08;;
56752;SDS011;42627;42.646;23.642;2023-02-26T16:28:21;5.47;;;1.80;;
56752;SDS011;42627;42.646;23.642;2023-02-26T16:30:25;7.00;;;2.08;;
56752;SDS011;42627;42.646;23.642;2023-02-26T16:32:28;8.90;;;2.60;;
56752;SDS011;42627;42.646;23.642;2023-02-26T16:34:35;10.50;;;3.40;;
56752;SDS011;42627;42.646;23.642;2023-02-26T19:01:40;10.02;;;2.63;;